sensor_id;sensor_type;location;lat;lon;timestamp;P1;durP1;ratioP1;P2;durP2;ratioP2
76846;SDS011;65813;49.546;8.644;2024-03-06T04:47:17;7.80;;;3.75;;
76846;SDS011;65813;49.546;8.644;2024-03-06T04:51:19;6.60;;;4.53;;
76846;SDS011;65813;49.546;8.644;2024-03-06T04:55:19;7.40;;;3.67;;
76846;SDS011;65813;49.546;8.644;2024-03-06T04:59:22;9.23;;;4.07;;
76846;SDS011;65813;49.546;8.644;2024-03-06T05:03:24;8.13;;;4.15;;
76846;SDS011;65813;49.546;8.644;2024-03-06T05:07:24;7.63;;;4.10;;
76846;SDS011;65813;49.546;8.644;2024-03-06T05:11:26;7.72;;;3.67;;
76846;SDS011;65813;49.546;8.644;2024-03-06T05:15:26;8.07;;;4.00;;
76846;SDS011;65813;49.546;8.644;2024-03-06T05:19:27;9.32;;;4.32;;
76846;SDS011;65813;49.546;8.644;2024-03-06T05:23:31;7.47;;;3.97;;
76846;SDS011;65813;49.546;8.644;2024-03-06T05:27:32;9.10;;;3.53;;
76846;SDS011;65813;49.546;8.644;2024-03-06T05:31:32;7.00;;;4.03;;
76846;SDS011;65813;49.546;8.644;2024-03-06T05:35:34;7.93;;;4.00;;
76846;SDS011;65813;49.546;8.644;2024-03-06T05:39:34;7.38;;;4.03;;
76846;SDS011;65813;49.546;8.644;2024-03-06T05:43:35;10.95;;;5.10;;
76846;SDS011;65813;49.546;8.644;2024-03-06T05:47:36;8.07;;;5.10;;
76846;SDS011;65813;49.546;8.644;2024-03-06T05:51:38;9.95;;;5.97;;
76846;SDS011;65813;49.546;8.644;2024-03-06T05:55:38;9.33;;;6.20;;
76846;SDS011;65813;49.546;8.644;2024-03-06T05:59:38;11.23;;;5.28;;
76846;SDS011;65813;49.546;8.644;2024-03-06T06:03:40;11.68;;;5.50;;
76846;SDS011;65813;49.546;8.644;2024-03-06T06:07:42;10.77;;;5.10;;
76846;SDS011;65813;49.546;8.644;2024-03-06T06:11:42;10.87;;;6.43;;
76846;SDS011;65813;49.546;8.644;2024-03-06T06:15:43;9.80;;;5.13;;
76846;SDS011;65813;49.546;8.644;2024-03-06T06:19:44;10.80;;;5.60;;
76846;SDS011;65813;49.546;8.644;2024-03-06T09:21:16;12.95;;;6.05;;
76846;SDS011;65813;49.546;8.644;2024-03-06T09:25:16;10.77;;;6.50;;
76846;SDS011;65813;49.546;8.644;2024-03-06T09:29:17;8.27;;;5.27;;
76846;SDS011;65813;49.546;8.644;2024-03-06T09:33:17;9.52;;;5.50;;
76846;SDS011;65813;49.546;8.644;2024-03-06T09:37:18;11.80;;;5.77;;
76846;SDS011;65813;49.546;8.644;2024-03-06T09:41:18;10.07;;;5.20;;
76846;SDS011;65813;49.546;8.644;2024-03-06T09:45:19;10.10;;;5.30;;
76846;SDS011;65813;49.546;8.644;2024-03-06T09:49:19;9.73;;;5.72;;
76846;SDS011;65813;49.546;8.644;2024-03-06T09:53:21;9.95;;;5.85;;
76846;SDS011;65813;49.546;8.644;2024-03-06T09:57:22;11.45;;;6.07;;
76846;SDS011;65813;49.546;8.644;2024-03-06T10:01:24;9.53;;;5.53;;
76846;SDS011;65813;49.546;8.644;2024-03-06T10:05:26;10.23;;;6.18;;
76846;SDS011;65813;49.546;8.644;2024-03-06T10:09:27;14.30;;;6.25;;
76846;SDS011;65813;49.546;8.644;2024-03-06T10:13:27;9.70;;;6.30;;
76846;SDS011;65813;49.546;8.644;2024-03-06T10:17:29;11.50;;;6.72;;
76846;SDS011;65813;49.546;8.644;2024-03-06T10:21:29;11.93;;;6.20;;
76846;SDS011;65813;49.546;8.644;2024-03-06T10:25:34;12.18;;;6.45;;
76846;SDS011;65813;49.546;8.644;2024-03-06T10:29:34;14.67;;;7.03;;
76846;SDS011;65813;49.546;8.644;2024-03-06T10:33:35;13.38;;;7.70;;
76846;SDS011;65813;49.546;8.644;2024-03-06T10:37:37;13.73;;;7.88;;
76846;SDS011;65813;49.546;8.644;2024-03-06T10:41:41;15.38;;;7.43;;
76846;SDS011;65813;49.546;8.644;2024-03-06T10:50:05;14.10;;;7.35;;
76846;SDS011;65813;49.546;8.644;2024-03-06T10:54:10;15.60;;;7.50;;
76846;SDS011;65813;49.546;8.644;2024-03-06T10:58:12;16.55;;;8.70;;
76846;SDS011;65813;49.546;8.644;2024-03-06T11:02:12;18.08;;;8.90;;
76846;SDS011;65813;49.546;8.644;2024-03-06T11:06:13;15.77;;;8.85;;
76846;SDS011;65813;49.546;8.644;2024-03-06T11:10:18;14.07;;;8.20;;
76846;SDS011;65813;49.546;8.644;2024-03-06T11:14:33;12.93;;;7.63;;
76846;SDS011;65813;49.546;8.644;2024-03-06T11:27:02;14.90;;;8.57;;
76846;SDS011;65813;49.546;8.644;2024-03-06T11:31:08;19.88;;;8.88;;
76846;SDS011;65813;49.546;8.644;2024-03-06T11:35:11;15.20;;;8.00;;
76846;SDS011;65813;49.546;8.644;2024-03-06T11:39:12;16.50;;;7.88;;
76846;SDS011;65813;49.546;8.644;2024-03-06T11:43:26;16.00;;;7.55;;
76846;SDS011;65813;49.546;8.644;2024-03-06T11:47:28;18.75;;;9.05;;
76846;SDS011;65813;49.546;8.644;2024-03-06T11:51:28;16.30;;;8.80;;
76846;SDS011;65813;49.546;8.644;2024-03-06T11:55:29;19.88;;;9.20;;
76846;SDS011;65813;49.546;8.644;2024-03-06T11:59:34;17.20;;;9.30;;
76846;SDS011;65813;49.546;8.644;2024-03-06T12:03:38;15.63;;;8.38;;
76846;SDS011;65813;49.546;8.644;2024-03-06T12:07:47;16.83;;;8.93;;
76846;SDS011;65813;49.546;8.644;2024-03-06T12:11:51;16.73;;;8.82;;
76846;SDS011;65813;49.546;8.644;2024-03-06T12:15:51;16.03;;;9.13;;
76846;SDS011;65813;49.546;8.644;2024-03-06T12:19:51;16.60;;;9.18;;
76846;SDS011;65813;49.546;8.644;2024-03-06T12:24:04;17.38;;;9.23;;
76846;SDS011;65813;49.546;8.644;2024-03-06T12:28:07;16.55;;;8.52;;
76846;SDS011;65813;49.546;8.644;2024-03-06T12:32:16;15.63;;;8.95;;
76846;SDS011;65813;49.546;8.644;2024-03-06T12:36:17;15.70;;;7.90;;
76846;SDS011;65813;49.546;8.644;2024-03-06T12:40:25;18.40;;;10.20;;
76846;SDS011;65813;49.546;8.644;2024-03-06T12:44:28;16.33;;;9.73;;
76846;SDS011;65813;49.546;8.644;2024-03-06T12:48:28;15.77;;;8.20;;
76846;SDS011;65813;49.546;8.644;2024-03-06T12:52:30;16.33;;;8.52;;
76846;SDS011;65813;49.546;8.644;2024-03-06T12:56:30;15.67;;;8.03;;
76846;SDS011;65813;49.546;8.644;2024-03-06T13:00:30;15.03;;;9.07;;
76846;SDS011;65813;49.546;8.644;2024-03-06T13:04:31;15.63;;;8.40;;
76846;SDS011;65813;49.546;8.644;2024-03-06T13:08:31;15.53;;;8.03;;
76846;SDS011;65813;49.546;8.644;2024-03-06T13:12:31;14.05;;;8.18;;
76846;SDS011;65813;49.546;8.644;2024-03-06T13:16:34;13.57;;;7.63;;
76846;SDS011;65813;49.546;8.644;2024-03-06T13:20:34;14.53;;;7.43;;
76846;SDS011;65813;49.546;8.644;2024-03-06T13:24:35;15.85;;;7.60;;
76846;SDS011;65813;49.546;8.644;2024-03-06T13:28:35;15.10;;;8.27;;
76846;SDS011;65813;49.546;8.644;2024-03-06T13:32:35;16.17;;;7.77;;
76846;SDS011;65813;49.546;8.644;2024-03-06T13:36:36;18.00;;;7.87;;
76846;SDS011;65813;49.546;8.644;2024-03-06T13:40:36;15.27;;;8.60;;
76846;SDS011;65813;49.546;8.644;2024-03-06T13:44:36;15.83;;;9.87;;
76846;SDS011;65813;49.546;8.644;2024-03-06T13:48:37;15.40;;;8.47;;
76846;SDS011;65813;49.546;8.644;2024-03-06T13:52:38;16.27;;;9.52;;
76846;SDS011;65813;49.546;8.644;2024-03-06T13:56:38;16.77;;;10.35;;
76846;SDS011;65813;49.546;8.644;2024-03-06T14:00:39;17.90;;;9.87;;
76846;SDS011;65813;49.546;8.644;2024-03-06T14:04:39;16.63;;;10.30;;
76846;SDS011;65813;49.546;8.644;2024-03-06T14:08:39;16.67;;;9.65;;
76846;SDS011;65813;49.546;8.644;2024-03-06T14:12:43;16.08;;;9.88;;
76846;SDS011;65813;49.546;8.644;2024-03-06T14:16:44;15.50;;;9.50;;
76846;SDS011;65813;49.546;8.644;2024-03-06T14:20:44;15.80;;;9.55;;
76846;SDS011;65813;49.546;8.644;2024-03-06T14:24:44;15.80;;;9.67;;
76846;SDS011;65813;49.546;8.644;2024-03-06T14:28:45;16.67;;;9.13;;
76846;SDS011;65813;49.546;8.644;2024-03-06T14:32:46;17.20;;;10.00;;
76846;SDS011;65813;49.546;8.644;2024-03-06T14:36:46;18.07;;;11.13;;
76846;SDS011;65813;49.546;8.644;2024-03-06T14:40:46;17.47;;;9.83;;
76846;SDS011;65813;49.546;8.644;2024-03-06T14:44:47;16.03;;;8.80;;
76846;SDS011;65813;49.546;8.644;2024-03-06T14:48:48;15.60;;;8.77;;
76846;SDS011;65813;49.546;8.644;2024-03-06T14:52:49;22.58;;;10.20;;
76846;SDS011;65813;49.546;8.644;2024-03-06T14:56:49;20.73;;;10.27;;
76846;SDS011;65813;49.546;8.644;2024-03-06T15:00:50;19.88;;;9.73;;
76846;SDS011;65813;49.546;8.644;2024-03-06T15:04:53;17.80;;;9.05;;
76846;SDS011;65813;49.546;8.644;2024-03-06T15:08:54;17.02;;;9.57;;
76846;SDS011;65813;49.546;8.644;2024-03-06T15:12:55;18.38;;;9.20;;
76846;SDS011;65813;49.546;8.644;2024-03-06T15:16:56;18.00;;;8.73;;
76846;SDS011;65813;49.546;8.644;2024-03-06T15:20:56;17.53;;;8.73;;
76846;SDS011;65813;49.546;8.644;2024-03-06T15:24:56;16.60;;;8.00;;
76846;SDS011;65813;49.546;8.644;2024-03-06T15:28:57;17.25;;;9.32;;
76846;SDS011;65813;49.546;8.644;2024-03-06T15:32:57;18.75;;;9.90;;
76846;SDS011;65813;49.546;8.644;2024-03-06T15:36:58;17.88;;;8.88;;
76846;SDS011;65813;49.546;8.644;2024-03-06T15:40:59;20.42;;;10.05;;
76846;SDS011;65813;49.546;8.644;2024-03-06T15:45:00;19.50;;;9.98;;
76846;SDS011;65813;49.546;8.644;2024-03-06T15:49:02;21.30;;;10.00;;
76846;SDS011;65813;49.546;8.644;2024-03-06T15:53:07;18.75;;;9.77;;
76846;SDS011;65813;49.546;8.644;2024-03-06T15:57:08;17.48;;;8.70;;
76846;SDS011;65813;49.546;8.644;2024-03-06T16:01:09;18.27;;;9.20;;
76846;SDS011;65813;49.546;8.644;2024-03-06T16:05:09;18.10;;;9.05;;
76846;SDS011;65813;49.546;8.644;2024-03-06T16:09:10;21.02;;;9.77;;
76846;SDS011;65813;49.546;8.644;2024-03-06T16:13:13;20.48;;;9.43;;
76846;SDS011;65813;49.546;8.644;2024-03-06T16:17:13;21.37;;;10.20;;
76846;SDS011;65813;49.546;8.644;2024-03-06T16:21:17;17.53;;;9.00;;
76846;SDS011;65813;49.546;8.644;2024-03-06T16:25:19;18.40;;;9.73;;
76846;SDS011;65813;49.546;8.644;2024-03-06T16:29:19;20.70;;;9.93;;
76846;SDS011;65813;49.546;8.644;2024-03-06T16:33:19;17.90;;;9.50;;
76846;SDS011;65813;49.546;8.644;2024-03-06T16:37:21;18.33;;;9.18;;
76846;SDS011;65813;49.546;8.644;2024-03-06T16:41:21;19.40;;;10.17;;
76846;SDS011;65813;49.546;8.644;2024-03-06T16:45:22;19.47;;;9.83;;
76846;SDS011;65813;49.546;8.644;2024-03-06T16:49:22;19.48;;;9.27;;
76846;SDS011;65813;49.546;8.644;2024-03-06T16:53:23;17.57;;;9.50;;
76846;SDS011;65813;49.546;8.644;2024-03-06T16:57:23;18.77;;;8.18;;
76846;SDS011;65813;49.546;8.644;2024-03-06T17:01:24;19.20;;;9.50;;
76846;SDS011;65813;49.546;8.644;2024-03-06T17:05:24;18.55;;;10.05;;
76846;SDS011;65813;49.546;8.644;2024-03-06T17:09:25;17.67;;;9.55;;
76846;SDS011;65813;49.546;8.644;2024-03-06T17:13:26;17.67;;;9.47;;
76846;SDS011;65813;49.546;8.644;2024-03-06T17:17:26;20.63;;;10.45;;
76846;SDS011;65813;49.546;8.644;2024-03-06T17:21:27;19.87;;;10.07;;
76846;SDS011;65813;49.546;8.644;2024-03-06T17:25:28;21.17;;;10.73;;
76846;SDS011;65813;49.546;8.644;2024-03-06T17:29:29;18.20;;;9.02;;
76846;SDS011;65813;49.546;8.644;2024-03-06T17:33:29;18.27;;;9.23;;
76846;SDS011;65813;49.546;8.644;2024-03-06T17:37:29;19.50;;;9.07;;
76846;SDS011;65813;49.546;8.644;2024-03-06T17:41:30;18.17;;;9.53;;
76846;SDS011;65813;49.546;8.644;2024-03-06T17:45:30;17.00;;;8.90;;
76846;SDS011;65813;49.546;8.644;2024-03-06T17:49:31;17.50;;;8.23;;
76846;SDS011;65813;49.546;8.644;2024-03-06T17:53:31;19.73;;;9.80;;
76846;SDS011;65813;49.546;8.644;2024-03-06T17:57:33;22.42;;;11.35;;
76846;SDS011;65813;49.546;8.644;2024-03-06T18:01:33;19.27;;;10.60;;
76846;SDS011;65813;49.546;8.644;2024-03-06T18:05:34;23.38;;;11.52;;
76846;SDS011;65813;49.546;8.644;2024-03-06T18:09:35;23.30;;;12.53;;
76846;SDS011;65813;49.546;8.644;2024-03-06T18:13:35;24.83;;;14.17;;
76846;SDS011;65813;49.546;8.644;2024-03-06T18:17:35;18.60;;;9.40;;
76846;SDS011;65813;49.546;8.644;2024-03-06T18:21:42;18.77;;;8.70;;
76846;SDS011;65813;49.546;8.644;2024-03-06T18:25:43;18.65;;;8.38;;
76846;SDS011;65813;49.546;8.644;2024-03-06T18:29:44;18.87;;;9.20;;
76846;SDS011;65813;49.546;8.644;2024-03-06T18:33:47;17.85;;;8.68;;
76846;SDS011;65813;49.546;8.644;2024-03-06T18:37:47;19.02;;;9.38;;
76846;SDS011;65813;49.546;8.644;2024-03-06T18:41:49;17.20;;;8.30;;
76846;SDS011;65813;49.546;8.644;2024-03-06T18:45:50;17.30;;;8.43;;
76846;SDS011;65813;49.546;8.644;2024-03-06T18:49:51;18.70;;;9.38;;
76846;SDS011;65813;49.546;8.644;2024-03-06T18:53:51;17.37;;;8.67;;
76846;SDS011;65813;49.546;8.644;2024-03-06T18:57:52;20.27;;;9.27;;
76846;SDS011;65813;49.546;8.644;2024-03-06T19:01:52;20.45;;;9.48;;
76846;SDS011;65813;49.546;8.644;2024-03-06T19:05:53;18.00;;;9.47;;
76846;SDS011;65813;49.546;8.644;2024-03-06T19:09:53;17.65;;;9.00;;
76846;SDS011;65813;49.546;8.644;2024-03-06T19:13:53;20.13;;;9.67;;
76846;SDS011;65813;49.546;8.644;2024-03-06T19:17:54;18.67;;;9.70;;
76846;SDS011;65813;49.546;8.644;2024-03-06T19:21:54;18.77;;;9.67;;
76846;SDS011;65813;49.546;8.644;2024-03-06T19:25:55;17.80;;;9.20;;
76846;SDS011;65813;49.546;8.644;2024-03-06T19:29:57;17.98;;;8.38;;
76846;SDS011;65813;49.546;8.644;2024-03-06T19:33:57;19.85;;;8.63;;
76846;SDS011;65813;49.546;8.644;2024-03-06T19:37:57;20.45;;;9.57;;
76846;SDS011;65813;49.546;8.644;2024-03-06T19:41:58;18.33;;;9.40;;
76846;SDS011;65813;49.546;8.644;2024-03-06T19:46:04;18.33;;;9.75;;
76846;SDS011;65813;49.546;8.644;2024-03-06T19:50:05;19.80;;;8.75;;
76846;SDS011;65813;49.546;8.644;2024-03-06T19:54:08;21.48;;;10.02;;
76846;SDS011;65813;49.546;8.644;2024-03-06T19:58:08;20.10;;;10.03;;
76846;SDS011;65813;49.546;8.644;2024-03-06T20:02:08;21.73;;;10.10;;
76846;SDS011;65813;49.546;8.644;2024-03-06T20:06:10;22.95;;;9.90;;
76846;SDS011;65813;49.546;8.644;2024-03-06T20:10:10;21.67;;;9.88;;
76846;SDS011;65813;49.546;8.644;2024-03-06T20:14:11;22.10;;;10.17;;
76846;SDS011;65813;49.546;8.644;2024-03-06T20:18:11;23.95;;;10.10;;
76846;SDS011;65813;49.546;8.644;2024-03-06T20:22:12;21.38;;;11.13;;
76846;SDS011;65813;49.546;8.644;2024-03-06T20:26:12;22.52;;;11.80;;
76846;SDS011;65813;49.546;8.644;2024-03-06T20:30:13;27.27;;;11.47;;
76846;SDS011;65813;49.546;8.644;2024-03-06T20:34:13;22.50;;;10.73;;
76846;SDS011;65813;49.546;8.644;2024-03-06T20:38:15;23.58;;;11.43;;
76846;SDS011;65813;49.546;8.644;2024-03-06T20:42:15;28.03;;;11.67;;
76846;SDS011;65813;49.546;8.644;2024-03-06T20:46:17;23.35;;;10.50;;
76846;SDS011;65813;49.546;8.644;2024-03-06T20:50:18;25.13;;;11.88;;
76846;SDS011;65813;49.546;8.644;2024-03-06T20:54:18;24.08;;;11.05;;
76846;SDS011;65813;49.546;8.644;2024-03-06T20:58:19;23.03;;;11.13;;
76846;SDS011;65813;49.546;8.644;2024-03-06T21:02:19;27.13;;;12.03;;
76846;SDS011;65813;49.546;8.644;2024-03-06T21:06:19;25.67;;;12.68;;
76846;SDS011;65813;49.546;8.644;2024-03-06T21:10:20;27.05;;;12.90;;
76846;SDS011;65813;49.546;8.644;2024-03-06T21:14:21;23.52;;;12.20;;
76846;SDS011;65813;49.546;8.644;2024-03-06T21:18:22;24.27;;;11.27;;
76846;SDS011;65813;49.546;8.644;2024-03-06T21:22:22;24.33;;;11.57;;
76846;SDS011;65813;49.546;8.644;2024-03-06T21:26:23;27.42;;;12.38;;
76846;SDS011;65813;49.546;8.644;2024-03-06T21:30:24;27.38;;;13.93;;
76846;SDS011;65813;49.546;8.644;2024-03-06T21:34:24;27.98;;;12.73;;
76846;SDS011;65813;49.546;8.644;2024-03-06T21:38:25;26.80;;;12.73;;
76846;SDS011;65813;49.546;8.644;2024-03-06T21:42:25;26.88;;;12.32;;
76846;SDS011;65813;49.546;8.644;2024-03-06T21:46:26;24.55;;;12.77;;
76846;SDS011;65813;49.546;8.644;2024-03-06T21:50:26;30.40;;;13.98;;
76846;SDS011;65813;49.546;8.644;2024-03-06T21:54:26;26.97;;;12.57;;
76846;SDS011;65813;49.546;8.644;2024-03-06T21:58:27;31.17;;;15.00;;
76846;SDS011;65813;49.546;8.644;2024-03-06T22:02:28;30.05;;;14.02;;
76846;SDS011;65813;49.546;8.644;2024-03-06T22:06:28;30.15;;;14.15;;
76846;SDS011;65813;49.546;8.644;2024-03-06T22:10:29;26.83;;;13.17;;
76846;SDS011;65813;49.546;8.644;2024-03-06T22:14:29;25.55;;;13.05;;
76846;SDS011;65813;49.546;8.644;2024-03-06T22:18:30;27.85;;;13.40;;
